createdAt,value
2022-10-16T00:04:39.378Z,0.50
2022-10-16T00:14:42.852Z,0.60
2022-10-16T00:24:44.622Z,0.60
2022-10-16T00:34:46.922Z,0.50
2022-10-16T00:44:55.147Z,0.50
2022-10-16T00:54:57.987Z,0.50
2022-10-16T01:05:00.047Z,0.68
2022-10-16T01:15:26.581Z,0.60
2022-10-16T01:25:43.275Z,0.55
2022-10-16T01:36:03.529Z,0.60
2022-10-16T01:46:06.744Z,0.65
2022-10-16T01:56:12.950Z,0.50
2022-10-16T02:06:14.799Z,0.60
2022-10-16T02:16:16.985Z,0.60
2022-10-16T02:26:25.691Z,0.77
2022-10-16T02:36:28.301Z,0.60
2022-10-16T02:46:30.137Z,0.63
2022-10-16T02:56:31.983Z,0.63
2022-10-16T03:06:33.772Z,0.60
2022-10-16T03:16:35.612Z,0.60
2022-10-16T03:26:37.657Z,0.60
2022-10-16T03:36:39.405Z,0.68
2022-10-16T03:46:41.277Z,0.80
2022-10-16T03:56:43.014Z,0.60
2022-10-16T04:06:44.827Z,0.60
2022-10-16T04:16:46.600Z,0.80
2022-10-16T04:26:48.479Z,0.50
2022-10-16T04:36:50.423Z,0.57
2022-10-16T04:46:52.471Z,0.60
2022-10-16T04:56:54.243Z,0.60
2022-10-16T05:06:56.007Z,0.50
2022-10-16T05:16:58.015Z,0.52
2022-10-16T05:26:59.824Z,0.50
2022-10-16T05:37:01.637Z,0.47
2022-10-16T05:47:03.465Z,0.50
2022-10-16T05:57:06.696Z,0.45
2022-10-16T06:07:08.724Z,0.68
2022-10-16T06:17:10.500Z,0.38
2022-10-16T06:27:12.254Z,0.50
2022-10-16T06:37:14.046Z,0.60
2022-10-16T06:47:15.834Z,0.47
2022-10-16T06:57:17.699Z,0.50
2022-10-16T07:07:19.512Z,0.63
2022-10-16T07:17:21.545Z,0.60
2022-10-16T07:27:24.978Z,0.60
2022-10-16T07:37:27.049Z,0.60
2022-10-16T07:47:29.511Z,0.65
2022-10-16T07:57:32.316Z,0.70
2022-10-16T08:07:34.161Z,0.60
2022-10-16T08:17:36.038Z,0.60
2022-10-16T08:27:37.804Z,0.73
2022-10-16T08:37:40.034Z,0.70
2022-10-16T08:48:30.779Z,0.65
2022-10-16T08:58:32.791Z,0.88
2022-10-16T09:08:53.474Z,0.90
2022-10-16T09:19:22.992Z,0.80
2022-10-16T09:29:25.997Z,0.90
2022-10-16T09:39:28.120Z,0.70
2022-10-16T09:49:29.909Z,0.70
2022-10-16T09:59:32.843Z,0.70
2022-10-16T10:09:43.513Z,0.70
2022-10-16T10:19:57.612Z,0.70
2022-10-16T10:40:31.660Z,0.63
2022-10-16T10:50:45.340Z,0.60
2022-10-16T11:00:55.971Z,0.50
2022-10-16T11:11:32.344Z,0.47
2022-10-16T11:21:42.411Z,0.50
2022-10-16T11:31:53.657Z,0.50
2022-10-16T11:42:23.088Z,0.60
2022-10-16T11:52:36.482Z,0.50
2022-10-16T12:03:22.990Z,0.65
2022-10-16T12:13:31.161Z,0.57
2022-10-16T12:23:47.768Z,0.70
2022-10-16T12:34:03.153Z,0.40
2022-10-16T12:44:05.029Z,0.40
2022-10-16T12:54:14.987Z,0.47
2022-10-16T13:04:23.104Z,0.50
2022-10-16T13:15:12.691Z,0.60
2022-10-16T13:25:26.297Z,0.60
2022-10-16T13:35:33.656Z,0.50
2022-10-16T13:45:35.473Z,0.50
2022-10-16T13:55:37.316Z,0.40
2022-10-16T14:05:48.898Z,0.50
2022-10-16T14:15:52.850Z,0.47
2022-10-16T14:25:54.800Z,0.50
2022-10-16T14:36:11.573Z,0.32
2022-10-16T14:56:32.174Z,0.40
2022-10-16T15:06:35.198Z,0.40
2022-10-16T15:16:36.973Z,0.40
2022-10-16T15:26:39.081Z,0.70
2022-10-16T15:36:41.537Z,0.85
2022-10-16T15:46:43.416Z,6.88
2022-10-16T15:56:46.557Z,9.93
2022-10-16T16:06:48.520Z,8.52
2022-10-16T16:16:50.325Z,6.68
2022-10-16T16:26:52.126Z,5.78
2022-10-16T16:36:54.523Z,5.00
2022-10-16T16:46:56.423Z,4.70
2022-10-16T16:56:58.230Z,3.63
2022-10-16T17:07:00.140Z,1.75
2022-10-16T17:17:02.007Z,1.77
2022-10-16T17:27:04.308Z,1.48
2022-10-16T17:37:06.090Z,1.50
2022-10-16T17:47:07.891Z,1.30
2022-10-16T17:57:09.763Z,1.13
2022-10-16T18:07:11.640Z,1.33
2022-10-16T18:17:13.576Z,0.82
2022-10-16T18:27:15.402Z,1.05
2022-10-16T18:37:18.059Z,1.30
2022-10-16T18:47:20.025Z,1.50
2022-10-16T18:57:21.863Z,1.40
2022-10-16T19:07:23.726Z,1.48
2022-10-16T19:17:25.654Z,1.42
2022-10-16T19:27:27.489Z,1.50
2022-10-16T19:37:29.293Z,1.27
2022-10-16T19:47:31.612Z,1.50
2022-10-16T20:07:38.153Z,1.17
2022-10-16T20:17:41.495Z,1.40
2022-10-16T20:27:43.260Z,1.27
2022-10-16T20:37:48.873Z,1.30
2022-10-16T20:47:50.741Z,1.35
2022-10-16T20:57:52.800Z,1.35
2022-10-16T21:07:55.531Z,1.35
2022-10-16T21:17:57.368Z,1.15
2022-10-16T21:27:59.127Z,1.38
2022-10-16T21:38:01.652Z,1.45
2022-10-16T21:48:03.635Z,1.38
2022-10-16T21:58:05.444Z,1.20
2022-10-16T22:08:07.485Z,1.30
2022-10-16T22:18:09.254Z,1.10
2022-10-16T22:28:11.256Z,1.00
2022-10-16T22:38:13.124Z,1.02
2022-10-16T22:48:14.898Z,1.00
2022-10-16T22:58:16.701Z,0.90
2022-10-16T23:08:18.645Z,0.90
2022-10-16T23:18:20.415Z,0.88
2022-10-16T23:28:22.208Z,1.02
2022-10-16T23:38:24.159Z,1.13
2022-10-16T23:48:26.026Z,0.90
2022-10-16T23:58:27.770Z,0.90
